Jefferson, New York
Current Conditions -  °F | °C
As of 7:15 PM on Wednesday 22 Oct 2014 (Local Time) from KNY0 Reporting Station
Overcast Overcast  
Wind Chill: 44°   Ceiling: 2600
Heat Index: 48°   Visibility: 10mi
Dew Point: 44°   Wind: 8mph
Humidity: 86%   Direction: 20°NNE
Pressure: 30.02"   Gusts: NA
Location:  42.48°N, 74.61°W
Report Text: KNY0 222315Z AUTO 02007KT 10SM BKN026 OVC048 09/07 A3002 RMK AO2 T00880065
Loading
Personal Weather Stations






























Interactive Weather Map
Tropical Storm Tracking
New forecast layout! Learn more

10-Day Weather Forecast

Advertisements
Track Severe Weather on mobile